Data for 08/27/2018

Time Sea-Level Adjusted Pressure Absolute Pressure Temperature Relative Humidity Dew Point   
(mb) (inHg) (mb) (inHg) (C) (F) (%) (C) (F)
00:05 1013 29.91 842 24.86 10.3 50.5 85 7.8 46.1
00:10 1013 29.91 842 24.86 10.2 50.3 85 7.8 46
00:15 1013 29.91 842 24.86 10 50 86 7.9 46.1
00:20 1013 29.91 842 24.86 9.9 49.8 87 7.9 46.2
00:25 1013 29.91 842 24.86 9.8 49.7 88 7.9 46.2
00:30 1013 29.91 842 24.86 9.8 49.6 89 8 46.4
00:35 1013 29.91 842 24.86 9.7 49.4 88 7.9 46.2
00:40 1013 29.91 842 24.86 9.4 48.9 89 7.6 45.7
00:45 1013 29.91 842 24.86 9.2 48.6 89 7.5 45.6
00:50 1013 29.91 842 24.86 9.2 48.5 90 7.5 45.6
00:55 1013 29.91 842 24.86 9.2 48.5 90 7.6 45.6
01:00 1013 29.91 842 24.86 9.1 48.4 90 7.6 45.6
01:05 1013 29.91 842 24.86 9.1 48.4 90 7.6 45.6
01:10 1013 29.91 842 24.86 9.1 48.4 90 7.5 45.4
01:15 1013 29.91 842 24.86 9.1 48.3 89 7.4 45.4
01:20 1013 29.91 842 24.86 9 48.3 89 7.3 45.2
01:25 1013 29.91 842 24.86 9 48.2 89 7.3 45.1
01:30 1013 29.91 842 24.86 9 48.2 89 7.2 45
01:35 1013 29.91 842 24.86 9 48.2 89 7.3 45.1
01:40 1013 29.91 842 24.86 9 48.2 89 7.3 45.1
01:45 1013 29.91 842 24.86 9.1 48.3 89 7.3 45.2
01:50 1013 29.91 842 24.86 9 48.3 89 7.3 45.1
01:55 1013 29.91 842 24.86 9 48.2 89 7.3 45.1
02:00 1013 29.91 842 24.86 8.9 48 89 7.2 45
02:05 1013 29.91 842 24.86 8.8 47.9 90 7.2 45
02:10 1013 29.91 842 24.86 8.9 48 90 7.3 45.1
02:15 1013 29.91 842 24.86 9 48.1 89 7.3 45.1
02:20 1013 29.91 842 24.86 8.9 47.9 89 7.2 44.9
02:25 1013 29.91 842 24.86 8.9 48.1 89 7.2 45
02:30 1013 29.91 842 24.86 9 48.2 89 7.2 45
02:35 1013 29.91 842 24.86 8.9 47.9 88 7 44.6
02:40 1013 29.91 842 24.86 8.8 47.8 88 6.9 44.4
02:45 1013 29.91 842 24.86 8.7 47.6 89 6.9 44.4
02:50 1013 29.91 842 24.86 8.8 47.8 89 7 44.6
02:55 1013 29.91 842 24.86 8.8 47.8 89 7 44.6
03:00 1013 29.91 842 24.86 8.7 47.6 89 6.9 44.5
03:05 1013 29.91 842 24.86 8.7 47.6 89 7 44.6
03:10 1013 29.91 842 24.86 8.7 47.6 89 7 44.6
03:15 1013 29.91 842 24.86 8.7 47.6 89 7 44.6
03:20 1013 29.91 842 24.86 8.7 47.7 89 7.1 44.7
03:25 1013 29.91 842 24.86 8.7 47.7 89 7 44.6
03:30 1013 29.91 842 24.86 8.7 47.6 89 6.9 44.4
03:35 1013 29.91 842 24.86 8.6 47.5 89 6.9 44.4
03:40 1013 29.91 842 24.86 8.5 47.3 88 6.7 44
03:45 1013 29.91 842 24.86 8.4 47.1 88 6.6 43.9
03:50 1013 29.91 842 24.86 8.4 47.1 88 6.5 43.7
03:55 1013 29.91 842 24.86 8.3 46.9 88 6.4 43.6
04:00 1013 29.91 842 24.86 8.3 46.9 88 6.5 43.6
04:05 1013 29.91 842 24.86 8.3 46.9 89 6.6 43.8
04:10 1013 29.91 842 24.86 8.3 46.9 89 6.6 43.8
04:15 1013 29.91 842 24.86 8.2 46.7 89 6.5 43.7
04:20 1013 29.91 842 24.86 8.1 46.6 89 6.4 43.6
04:25 1013 29.91 842 24.86 8 46.5 89 6.3 43.4
04:30 1013 29.91 842 24.86 8.1 46.5 89 6.4 43.5
04:35 1013 29.91 842 24.86 8 46.3 89 6.2 43.2
04:40 1013 29.91 842 24.86 7.9 46.3 89 6.2 43.2
04:45 1013 29.91 842 24.86 7.9 46.2 88 6.1 43
04:50 1013 29.91 842 24.86 7.8 46.1 88 6 42.7
04:55 1013 29.91 842 24.86 7.8 46 88 6 42.7
05:00 1013 29.91 842 24.86 7.8 46 88 5.9 42.6
05:05 1013 29.91 842 24.86 7.7 45.9 87 5.7 42.3
05:10 1013 29.91 842 24.86 7.7 45.8 86 5.5 42
05:15 1013 29.91 842 24.86 7.6 45.8 87 5.5 42
05:20 1013 29.91 842 24.86 7.7 45.8 86 5.4 41.8
05:25 1013 29.91 842 24.86 7.6 45.7 86 5.5 41.9
05:30 1013 29.91 842 24.86 7.7 45.8 87 5.6 42
05:35 1013 29.91 842 24.86 7.6 45.7 84 5.1 41.2
05:40 1013 29.91 842 24.86 7.6 45.7 85 5.2 41.4
05:45 1013 29.91 842 24.86 7.6 45.7 84 5.1 41.2
05:50 1013 29.91 842 24.86 7.6 45.6 84 5 41.1
05:55 1013 29.91 842 24.86 7.6 45.6 85 5.3 41.5
06:00 1013 29.91 842 24.86 7.6 45.7 86 5.5 41.9
06:05 1013 29.91 842 24.86 7.7 45.8 87 5.7 42.2
06:10 1013 29.91 842 24.86 7.7 45.9 87 5.7 42.3
06:15 1013 29.91 843 24.89 7.8 46.1 88 5.9 42.6
06:20 1013 29.91 843 24.89 7.8 46.1 87 5.9 42.6
06:25 1013 29.91 843 24.89 7.7 45.9 88 5.8 42.5
06:30 1013 29.91 843 24.89 7.7 45.9 88 5.9 42.7
06:35 1013 29.91 843 24.89 7.8 46 89 6 42.8
06:40 1013 29.91 843 24.89 7.7 45.9 88 5.8 42.5
06:45 1014 29.94 843 24.89 7.8 46 88 5.9 42.6
06:50 1014 29.94 843 24.89 7.9 46.1 85 5.6 42
06:55 1014 29.94 843 24.89 7.8 46.1 84 5.3 41.6
07:00 1014 29.94 843 24.89 7.9 46.2 85 5.5 41.8
07:05 1014 29.94 843 24.89 7.9 46.1 85 5.4 41.8
07:10 1014 29.94 843 24.89 7.8 46.1 85 5.5 42
07:15 1014 29.94 843 24.89 7.9 46.3 85 5.6 42.1
07:20 1014 29.94 843 24.89 7.9 46.3 85 5.6 42
07:25 1014 29.94 843 24.89 8 46.5 86 5.8 42.4
07:30 1014 29.94 843 24.89 8 46.5 85 5.7 42.2
07:35 1014 29.94 843 24.89 8 46.5 85 5.6 42.1
07:40 1014 29.94 843 24.89 8.1 46.5 84 5.5 41.9
07:45 1014 29.94 843 24.89 8.1 46.7 84 5.6 42.1
07:50 1014 29.94 843 24.89 8.1 46.6 84 5.7 42.2
07:55 1014 29.94 843 24.89 8.2 46.7 85 5.7 42.3
08:00 1014 29.94 843 24.89 8.1 46.5 85 5.6 42.1
08:05 1014 29.94 843 24.89 8 46.5 83 5.3 41.6
08:10 1014 29.94 843 24.89 8 46.4 85 5.6 42
08:15 1014 29.94 843 24.89 8.1 46.6 85 5.8 42.4
08:20 1014 29.94 843 24.89 8.3 46.9 84 5.8 42.4
08:25 1014 29.94 843 24.89 8.1 46.6 83 5.4 41.7
08:30 1014 29.94 843 24.89 8.1 46.6 85 5.7 42.2
08:35 1014 29.94 843 24.89 8.3 47 84 5.8 42.4
08:40 1014 29.94 843 24.89 8.5 47.2 82 5.6 42.1
08:45 1014 29.94 843 24.89 8.6 47.5 82 5.7 42.3
08:50 1014 29.94 843 24.89 8.6 47.4 81 5.6 42.1
08:55 1014 29.94 844 24.92 8.5 47.3 82 5.6 42.1
09:00 1014 29.94 844 24.92 8.5 47.4 83 5.8 42.4
09:05 1014 29.94 844 24.92 8.5 47.3 83 5.7 42.3
09:10 1014 29.94 844 24.92 8.5 47.3 83 5.8 42.4
09:15 1015 29.97 844 24.92 8.6 47.4 83 5.9 42.6
09:20 1015 29.97 844 24.92 8.7 47.6 84 6.2 43.1
09:25 1015 29.97 844 24.92 8.6 47.6 86 6.4 43.5
09:30 1015 29.97 844 24.92 8.7 47.6 85 6.4 43.4
09:35 1015 29.97 844 24.92 8.5 47.3 84 5.9 42.7
09:40 1015 29.97 844 24.92 8.3 47 85 5.9 42.7
09:45 1015 29.97 844 24.92 8.3 47 84 5.9 42.6
09:50 1015 29.97 844 24.92 8.3 46.9 86 6 42.8
09:55 1015 29.97 844 24.92 8.4 47 85 6 42.7
10:00 1015 29.97 844 24.92 8.4 47.1 86 6.1 43
10:05 1015 29.97 844 24.92 8.5 47.3 83 5.8 42.5
10:10 1015 29.97 844 24.92 8.4 47.1 84 5.9 42.6
10:15 1015 29.97 844 24.92 8.4 47.1 85 5.9 42.7
10:20 1015 29.97 844 24.92 8.5 47.3 82 5.6 42.1
10:25 1015 29.97 844 24.92 8.5 47.3 84 5.9 42.6
10:30 1015 29.97 845 24.95 8.5 47.3 83 5.9 42.6
10:35 1015 29.97 845 24.95 8.1 46.7 83 5.4 41.6
10:40 1016 30 845 24.95 8.1 46.5 84 5.5 41.9
10:45 1016 30 845 24.95 8.3 46.9 84 5.7 42.2
10:50 1016 30 845 24.95 8.4 47.1 82 5.4 41.8
10:55 1016 30 845 24.95 8.4 47.1 83 5.7 42.2
11:00 1016 30 845 24.95 8.5 47.3 83 5.8 42.5
11:05 1016 30 845 24.95 8.5 47.3 83 5.9 42.5
11:10 1016 30 845 24.95 8.6 47.5 82 5.7 42.2
11:15 1016 30 845 24.95 8.5 47.3 82 5.5 41.9
11:20 1016 30 845 24.95 8.7 47.7 81 5.7 42.3
11:25 1016 30 845 24.95 8.5 47.4 80 5.2 41.4
11:30 1016 30 845 24.95 8.2 46.7 81 5.1 41.1
11:35 1016 30 845 24.95 8 46.4 82 5.2 41.3
11:40 1016 30 845 24.95 8 46.5 79 4.6 40.2
11:45 1016 30 845 24.95 8 46.4 80 4.7 40.5
11:50 1016 30 845 24.95 8 46.4 81 4.9 40.8
11:55 1016 30 845 24.95 8.2 46.8 78 4.6 40.2
12:00 1016 30 845 24.95 8.1 46.7 79 4.7 40.4
12:05 1016 30 845 24.95 8.1 46.6 78 4.5 40.1
12:10 1016 30 846 24.98 8.3 46.9 78 4.7 40.5
12:15 1016 30 846 24.98 8.5 47.2 78 4.9 40.9
12:20 1016 30 846 24.98 8.4 47.2 76 4.4 40
12:25 1016 30 846 24.98 8.2 46.8 76 4.3 39.8
12:30 1016 30 846 24.98 8.2 46.8 78 4.6 40.3
12:35 1016 30 846 24.98 8.3 47 80 5.1 41.2
12:40 1016 30 846 24.98 8.4 47.2 80 5.2 41.3
12:45 1017 30.03 846 24.98 8.6 47.5 81 5.5 41.9
12:50 1017 30.03 846 24.98 8.9 48 81 5.7 42.3
12:55 1017 30.03 846 24.98 8.9 48.1 82 6 42.8
13:00 1017 30.03 846 24.98 8.8 47.9 84 6.3 43.3
13:05 1017 30.03 846 24.98 8.8 47.9 84 6.3 43.3
13:10 1017 30.03 846 24.98 9.1 48.3 84 6.6 43.8
13:15 1017 30.03 846 24.98 9 48.2 83 6.3 43.3
13:20 1017 30.03 846 24.98 8.7 47.7 79 5.3 41.5
13:25 1017 30.03 846 24.98 8.4 47.1 80 5.1 41.2
13:30 1017 30.03 846 24.98 8.3 46.9 80 5 40.9
13:35 1017 30.03 846 24.98 8.4 47 80 5.2 41.3
13:40 1017 30.03 846 24.98 8.7 47.7 80 5.5 41.9
13:45 1017 30.03 846 24.98 9.1 48.3 80 5.8 42.5
13:50 1017 30.03 846 24.98 9.5 49.1 83 6.8 44.2
13:55 1017 30.03 846 24.98 9.8 49.7 80 6.6 43.9
14:00 1017 30.03 847 25.01 9.9 49.9 79 6.5 43.8
14:05 1017 30.03 847 25.01 10.1 50.1 80 6.8 44.3
14:10 1017 30.03 847 25.01 10.1 50.2 79 6.6 43.9
14:15 1017 30.03 847 25.01 9.9 49.8 80 6.6 43.9
14:20 1018 30.06 847 25.01 9.6 49.3 81 6.5 43.7
14:25 1018 30.06 847 25.01 9.5 49.1 81 6.3 43.4
14:30 1018 30.06 847 25.01 9.3 48.8 82 6.5 43.6
14:35 1018 30.06 847 25.01 9.2 48.5 82 6.3 43.3
14:40 1018 30.06 847 25.01 9.2 48.6 83 6.5 43.6
14:45 1018 30.06 847 25.01 9.4 48.9 78 5.8 42.4
14:50 1018 30.06 847 25.01 9.3 48.7 81 6.2 43.1
14:55 1018 30.06 847 25.01 9.3 48.8 82 6.4 43.6
15:00 1018 30.06 847 25.01 9.2 48.5 83 6.4 43.5
15:05 1018 30.06 847 25.01 9.1 48.3 83 6.3 43.3
15:10 1018 30.06 847 25.01 8.9 48 82 6 42.9
15:15 1018 30.06 847 25.01 9 48.2 83 6.3 43.3
15:20 1018 30.06 847 25.01 9.4 48.9 78 5.9 42.6
15:25 1018 30.06 847 25.01 9.7 49.4 80 6.3 43.4
15:30 1018 30.06 847 25.01 9.9 49.8 79 6.4 43.5
15:35 1018 30.06 847 25.01 9.8 49.7 78 6.1 43
15:40 1018 30.06 847 25.01 9.8 49.6 77 5.9 42.6
15:45 1018 30.06 847 25.01 10 50.1 76 6.1 43
15:50 1018 30.06 847 25.01 10.6 51.1 71 5.5 41.9
15:55 1018 30.06 847 25.01 10.7 51.2 73 6.1 43
16:00 1018 30.06 847 25.01 10.4 50.8 73 5.7 42.3
16:05 1018 30.06 847 25.01 10.4 50.7 72 5.6 42
16:10 1018 30.06 847 25.01 10.6 51 68 4.8 40.7
16:15 1018 30.06 847 25.01 10.4 50.8 72 5.6 42
16:20 1018 30.06 848 25.04 10.3 50.5 69 4.9 40.9
16:25 1018 30.06 848 25.04 10.3 50.5 69 5 40.9
16:30 1019 30.09 848 25.04 10.2 50.4 71 5.1 41.2
16:35 1019 30.09 848 25.04 10.2 50.3 71 5.2 41.4
16:40 1019 30.09 848 25.04 10.2 50.3 69 4.7 40.5
16:45 1019 30.09 848 25.04 10.3 50.5 67 4.5 40
16:50 1019 30.09 848 25.04 10.4 50.8 67 4.7 40.4
16:55 1019 30.09 848 25.04 10.5 50.9 65 4.4 39.9
17:00 1019 30.09 848 25.04 10.5 50.9 65 4.3 39.7
17:05 1019 30.09 848 25.04 10.5 50.9 64 4 39.2
17:10 1019 30.09 848 25.04 10.5 50.9 63 3.8 38.9
17:15 1019 30.09 848 25.04 10.7 51.2 64 4.2 39.6
17:20 1019 30.09 848 25.04 10.7 51.3 62 3.7 38.7
17:25 1019 30.09 848 25.04 10.7 51.2 61 3.5 38.4
17:30 1019 30.09 848 25.04 10.7 51.3 61 3.6 38.4
17:35 1019 30.09 848 25.04 10.7 51.3 62 3.7 38.7
17:40 1019 30.09 848 25.04 10.7 51.2 62 3.6 38.5
17:45 1019 30.09 848 25.04 10.7 51.2 61 3.5 38.3
17:50 1019 30.09 848 25.04 10.8 51.4 60 3.3 37.9
17:55 1019 30.09 848 25.04 10.7 51.3 61 3.5 38.3
18:00 1019 30.09 849 25.07 10.5 50.8 62 3.5 38.4
18:05 1019 30.09 849 25.07 10.3 50.5 61 3.2 37.8
18:10 1020 30.12 849 25.07 10.2 50.4 63 3.5 38.3
18:15 1020 30.12 849 25.07 10 50.1 61 3 37.3
18:20 1020 30.12 849 25.07 9.9 49.9 63 3.3 37.9
18:25 1020 30.12 849 25.07 9.8 49.7 62 3 37.3
18:30 1020 30.12 849 25.07 9.7 49.5 62 2.8 37
18:35 1020 30.12 849 25.07 9.7 49.5 61 2.6 36.7
18:40 1020 30.12 849 25.07 9.6 49.3 63 2.9 37.1
18:45 1020 30.12 849 25.07 9.6 49.3 63 3 37.3
18:50 1020 30.12 849 25.07 9.5 49.2 63 2.8 37.1
18:55 1020 30.12 849 25.07 9.5 49.1 63 2.8 37
19:00 1020 30.12 849 25.07 9.5 49 64 2.9 37.3
19:05 1020 30.12 849 25.07 9.4 49 62 2.4 36.4
19:10 1020 30.12 849 25.07 9.4 48.8 62 2.4 36.3
19:15 1020 30.12 849 25.07 9.3 48.8 63 2.7 36.9
19:20 1020 30.12 849 25.07 9.3 48.8 64 2.9 37.2
19:25 1020 30.12 850 25.1 9.3 48.7 65 3.1 37.6
19:30 1020 30.12 850 25.1 9.3 48.8 65 3.2 37.8
19:35 1020 30.12 850 25.1 9.3 48.7 65 3.2 37.7
19:40 1020 30.12 850 25.1 9.2 48.6 65 3 37.4
19:45 1021 30.15 850 25.1 9.2 48.5 65 2.9 37.2
19:50 1021 30.15 850 25.1 9.1 48.4 65 3 37.4
19:55 1021 30.15 850 25.1 9 48.3 64 2.7 36.8
20:00 1021 30.15 850 25.1 8.9 48 65 2.8 37.1
20:05 1021 30.15 850 25.1 8.9 47.9 65 2.6 36.7
20:10 1021 30.15 850 25.1 8.8 47.8 66 2.9 37.2
20:15 1021 30.15 850 25.1 8.8 47.8 67 2.9 37.3
20:20 1021 30.15 850 25.1 8.7 47.6 66 2.8 37
20:25 1021 30.15 850 25.1 8.6 47.4 65 2.4 36.4
20:30 1021 30.15 850 25.1 8.4 47.2 66 2.5 36.5
20:35 1021 30.15 850 25.1 8.4 47.1 66 2.4 36.4
20:40 1021 30.15 851 25.13 8.2 46.8 66 2.4 36.3
20:45 1021 30.15 851 25.13 8.1 46.6 67 2.4 36.4
20:50 1022 30.18 851 25.13 8 46.4 68 2.6 36.6
20:55 1022 30.18 851 25.13 7.9 46.3 67 2.3 36.1
21:00 1022 30.18 851 25.13 7.8 46.1 68 2.3 36.2
21:05 1022 30.18 851 25.13 7.7 45.9 69 2.4 36.3
21:10 1022 30.18 851 25.13 7.6 45.7 70 2.5 36.5
21:15 1022 30.18 851 25.13 7.5 45.4 70 2.4 36.3
21:20 1022 30.18 851 25.13 7.3 45.1 72 2.6 36.6
21:25 1022 30.18 851 25.13 7.2 44.9 73 2.6 36.8
21:30 1022 30.18 851 25.13 6.9 44.5 74 2.6 36.8
21:35 1022 30.18 851 25.13 6.9 44.4 74 2.6 36.7
21:40 1022 30.18 851 25.13 6.8 44.3 74 2.5 36.5
21:45 1022 30.18 851 25.13 6.8 44.3 73 2.4 36.3
21:50 1022 30.18 851 25.13 6.8 44.3 74 2.4 36.4
21:55 1022 30.18 851 25.13 6.8 44.2 74 2.5 36.5
22:00 1022 30.18 851 25.13 6.9 44.3 74 2.5 36.4
22:05 1022 30.18 851 25.13 6.9 44.3 74 2.5 36.5
22:10 1022 30.18 851 25.13 6.8 44.3 73 2.4 36.4
22:15 1022 30.18 851 25.13 6.9 44.3 74 2.5 36.4
22:20 1022 30.18 851 25.13 6.8 44.2 75 2.7 36.8
22:25 1022 30.18 852 25.16 6.8 44.2 75 2.7 36.9
22:30 1022 30.18 852 25.16 6.7 44.1 75 2.7 36.8
22:35 1022 30.18 852 25.16 6.7 44.1 75 2.6 36.7
22:40 1022 30.18 852 25.16 6.7 44.1 75 2.6 36.7
22:45 1022 30.18 852 25.16 6.7 44.1 75 2.6 36.6
22:50 1022 30.18 852 25.16 6.7 44 75 2.5 36.5
22:55 1023 30.21 852 25.16 6.6 43.9 75 2.5 36.5
23:00 1023 30.21 852 25.16 6.6 43.9 75 2.6 36.6
23:05 1023 30.21 852 25.16 6.6 43.9 75 2.5 36.5
23:10 1023 30.21 852 25.16 6.5 43.7 76 2.5 36.5
23:15 1023 30.21 852 25.16 6.5 43.6 75 2.3 36.1
23:20 1023 30.21 852 25.16 6.4 43.6 75 2.4 36.3
23:25 1023 30.21 852 25.16 6.4 43.5 75 2.3 36.2
23:30 1023 30.21 852 25.16 6.4 43.4 75 2.3 36.1
23:35 1023 30.21 852 25.16 6.3 43.3 76 2.3 36.1
23:40 1023 30.21 852 25.16 6.2 43.2 76 2.3 36.1
23:45 1023 30.21 852 25.16 6.3 43.3 75 2.2 36
23:50 1023 30.21 852 25.16 6.2 43.2 75 2.2 35.9
23:55 1023 30.21 852 25.16 6.1 42.9 76 2.1 35.8
24:00 1023 30.21 852 25.16 6 42.8 76 2.1 35.7